KISP/ISP METAR and TAF weather

Enter ICAO airport designator
Station Type Date Time Source
KISP METAR 2021/07/28 20:56 UTC NOAA

KISP 282056Z 14009KT 10SM SCT060 26/17 A2999 RMK AO2 SLP156 T02610172 55002


Station Type Date Time Source
KISP Decoded METAR 2021/07/28 20:56 UTC NOAA

ISLIP LONG ISLAND MAC ART, NY, United States (KISP) 40-48N 073-06W 43M
Jul 28, 2021 - 04:56 PM EDT / 2021.07.28 2056 UTC
Wind: from the SE (140 degrees) at 10 MPH (9 KT):0
Visibility: 10 mile(s):0
Sky conditions: partly cloudy
Temperature: 79.0 F (26.1 C)
Dew Point: 63.0 F (17.2 C)
Relative Humidity: 58%
Pressure (altimeter): 29.99 in. Hg (1015 hPa)
Pressure tendency: 0.01 inches (0.2 hPa) lower than three hours ago
ob: KISP 282056Z 14009KT 10SM SCT060 26/17 A2999 RMK AO2 SLP156 T02610172 55002
cycle: 21

Station Type Date Time Source
KISP TAF 2021/07/28 20:51 UTC NOAA

TAF
AMD KISP 281949Z 2820/2918 08008KT P6SM SCT050
FM282030 15008KT P6SM SCT050
FM290700 VRB03KT 6SM BR BKN015
FM291400 15007KT P6SM OVC035

Example: see airport list